Wassaic, New York
Current Conditions -  °F | °C
As of 6:53 PM on Sunday 21 Dec 2014 (Local Time) from KPOU Reporting Station
Overcast Overcast  
Wind Chill: 29°   Ceiling: 2200
Heat Index: 33°   Visibility: 10mi
Dew Point: 26°   Wind: 5mph
Humidity: 75%   Direction: 360°N
Pressure: 30.35"   Gusts: NA
Location:  41.8°N, 73.56°W
Report Text: KPOU 212353Z 36004KT 10SM OVC022 01/M03 A3035 RMK AO2 SLP276 T00061033 10011 20000 53015
Loading
Personal Weather Stations






























Interactive Weather Map New forecast layout! Learn more

10-Day Weather Forecast

Advertisements
Track Severe Weather on mobile